VLG1XM LEBB-LEBL
Flight info
| Callsign | VLG1XM |
|---|---|
| Flight time | 0h 54m |
| Altitude | 28000 |
| Route | PPN M601 TURPU/N0437F300 M601 GRAUS |
| Aircraft | A320/M-SDE3FGHIRWY/LB1 |
Departure
| Time | 2026-05-04 17:43 |
|---|---|
| Airport | Bilbao Airport (LEBB) |
Arrival
| Time | 2026-05-04 18:37 |
|---|---|
| Airport | Josep Tarradellas Barcelona-El Prat Airport (LEBL) |
| Time | Latitude | Longitude | Altitude | Speed | Heading |
|---|---|---|---|---|---|
| 2026-05-04 17:16 | 43.30428 | -2.90634 | 132 ft | 0 kts | 26° |
| 2026-05-04 17:32 | 43.30418 | -2.90641 | 132 ft | 2 kts | 29° |
| 2026-05-04 17:33 | 43.30381 | -2.90685 | 132 ft | 2 kts | 71° |
| 2026-05-04 17:33 | 43.30379 | -2.90707 | 132 ft | 2 kts | 105° |
| 2026-05-04 17:34 | 43.30384 | -2.90726 | 132 ft | 0 kts | 116° |
| 2026-05-04 17:35 | 43.30383 | -2.90724 | 132 ft | 2 kts | 116° |
| 2026-05-04 17:35 | 43.30366 | -2.90678 | 132 ft | 6 kts | 116° |
| 2026-05-04 17:36 | 43.30348 | -2.90628 | 132 ft | 8 kts | 118° |
| 2026-05-04 17:36 | 43.30312 | -2.90582 | 132 ft | 7 kts | 148° |
| 2026-05-04 17:36 | 43.30249 | -2.90527 | 132 ft | 12 kts | 157° |
| 2026-05-04 17:36 | 43.30181 | -2.90556 | 132 ft | 10 kts | 211° |
| 2026-05-04 17:37 | 43.30121 | -2.90566 | 132 ft | 10 kts | 144° |
| 2026-05-04 17:37 | 43.30082 | -2.90472 | 132 ft | 11 kts | 117° |
| 2026-05-04 17:37 | 43.30038 | -2.90354 | 132 ft | 16 kts | 117° |
| 2026-05-04 17:37 | 43.29989 | -2.90223 | 132 ft | 15 kts | 116° |
| 2026-05-04 17:38 | 43.29943 | -2.90096 | 132 ft | 15 kts | 116° |
| 2026-05-04 17:38 | 43.29900 | -2.89979 | 132 ft | 13 kts | 117° |
| 2026-05-04 17:38 | 43.29861 | -2.89874 | 132 ft | 12 kts | 116° |
| 2026-05-04 17:38 | 43.29822 | -2.89765 | 132 ft | 14 kts | 116° |
| 2026-05-04 17:39 | 43.29748 | -2.89585 | 132 ft | 7 kts | 144° |
| 2026-05-04 17:39 | 43.29710 | -2.89590 | 132 ft | 4 kts | 213° |
| 2026-05-04 17:39 | 43.29709 | -2.89592 | 132 ft | 0 kts | 215° |
| 2026-05-04 17:41 | 43.29675 | -2.89644 | 132 ft | 12 kts | 231° |
| 2026-05-04 17:41 | 43.29635 | -2.89751 | 132 ft | 13 kts | 272° |
| 2026-05-04 17:41 | 43.29661 | -2.89834 | 132 ft | 0 kts | 296° |
| 2026-05-04 17:42 | 43.29684 | -2.89896 | 132 ft | 27 kts | 297° |
| 2026-05-04 17:42 | 43.29884 | -2.90446 | 132 ft | 99 kts | 296° |
| 2026-05-04 17:42 | 43.30280 | -2.91527 | 135 ft | 152 kts | 297° |
| 2026-05-04 17:43 | 43.30777 | -2.92877 | 676 ft | 158 kts | 297° |
| 2026-05-04 17:43 | 43.31275 | -2.94227 | 1426 ft | 162 kts | 298° |
| 2026-05-04 17:43 | 43.31814 | -2.95680 | 1797 ft | 180 kts | 298° |
| 2026-05-04 17:43 | 43.32407 | -2.97284 | 2204 ft | 198 kts | 299° |
| 2026-05-04 17:44 | 43.33387 | -2.98609 | 2921 ft | 203 kts | 334° |
| 2026-05-04 17:44 | 43.34766 | -2.99080 | 3667 ft | 211 kts | 358° |
| 2026-05-04 17:44 | 43.36238 | -2.98723 | 4405 ft | 221 kts | 21° |
| 2026-05-04 17:44 | 43.37554 | -2.97475 | 4946 ft | 246 kts | 48° |
| 2026-05-04 17:45 | 43.38362 | -2.95292 | 5484 ft | 268 kts | 78° |
| 2026-05-04 17:45 | 43.38333 | -2.92735 | 6309 ft | 276 kts | 97° |
| 2026-05-04 17:45 | 43.38043 | -2.90076 | 7185 ft | 280 kts | 98° |
| 2026-05-04 17:45 | 43.37748 | -2.87446 | 8007 ft | 284 kts | 98° |
| 2026-05-04 17:46 | 43.37441 | -2.84709 | 8893 ft | 289 kts | 99° |
| 2026-05-04 17:46 | 43.37137 | -2.81992 | 9796 ft | 293 kts | 99° |
| 2026-05-04 17:46 | 43.36823 | -2.79166 | 10602 ft | 298 kts | 99° |
| 2026-05-04 17:46 | 43.36337 | -2.76338 | 11030 ft | 315 kts | 115° |
| 2026-05-04 17:47 | 43.35109 | -2.73739 | 11269 ft | 336 kts | 130° |
| 2026-05-04 17:47 | 43.33644 | -2.71217 | 11760 ft | 347 kts | 130° |
| 2026-05-04 17:47 | 43.32108 | -2.68623 | 12443 ft | 353 kts | 131° |
| 2026-05-04 17:47 | 43.30547 | -2.65998 | 13170 ft | 357 kts | 131° |
| 2026-05-04 17:48 | 43.28969 | -2.63341 | 13896 ft | 361 kts | 131° |
| 2026-05-04 17:48 | 43.27379 | -2.60655 | 14555 ft | 365 kts | 131° |
| 2026-05-04 17:48 | 43.25776 | -2.57940 | 15218 ft | 368 kts | 131° |
| 2026-05-04 17:48 | 43.24162 | -2.55198 | 15883 ft | 371 kts | 131° |
| 2026-05-04 17:49 | 43.23085 | -2.53366 | 16318 ft | 373 kts | 131° |
| 2026-05-04 17:49 | 43.21449 | -2.50583 | 16964 ft | 376 kts | 131° |
| 2026-05-04 17:49 | 43.19799 | -2.47783 | 17591 ft | 380 kts | 132° |
| 2026-05-04 17:49 | 43.18132 | -2.44958 | 18213 ft | 383 kts | 132° |
| 2026-05-04 17:50 | 43.16449 | -2.42113 | 18756 ft | 386 kts | 132° |
| 2026-05-04 17:50 | 43.14750 | -2.39247 | 19292 ft | 389 kts | 132° |
| 2026-05-04 17:50 | 43.13035 | -2.36358 | 19810 ft | 392 kts | 132° |
| 2026-05-04 17:50 | 43.11309 | -2.33451 | 20320 ft | 395 kts | 132° |
| 2026-05-04 17:51 | 43.09571 | -2.30522 | 20830 ft | 398 kts | 132° |
| 2026-05-04 17:51 | 43.07819 | -2.27574 | 21350 ft | 401 kts | 132° |
| 2026-05-04 17:51 | 43.06051 | -2.24602 | 21856 ft | 404 kts | 132° |
| 2026-05-04 17:51 | 43.04267 | -2.21607 | 22347 ft | 408 kts | 132° |
| 2026-05-04 17:52 | 43.02470 | -2.18587 | 22844 ft | 411 kts | 132° |
| 2026-05-04 17:52 | 43.00657 | -2.15545 | 23312 ft | 414 kts | 132° |
| 2026-05-04 17:52 | 42.98830 | -2.12487 | 23741 ft | 418 kts | 132° |
| 2026-05-04 17:52 | 42.96984 | -2.09407 | 24144 ft | 420 kts | 132° |
| 2026-05-04 17:53 | 42.95127 | -2.06312 | 24560 ft | 422 kts | 133° |
| 2026-05-04 17:53 | 42.93261 | -2.03202 | 24955 ft | 425 kts | 133° |
| 2026-05-04 17:53 | 42.91386 | -2.00075 | 25343 ft | 427 kts | 133° |
| 2026-05-04 17:53 | 42.89502 | -1.96932 | 25724 ft | 429 kts | 133° |
| 2026-05-04 17:54 | 42.87607 | -1.93777 | 26116 ft | 431 kts | 133° |
| 2026-05-04 17:54 | 42.85702 | -1.90612 | 26493 ft | 433 kts | 133° |
| 2026-05-04 17:54 | 42.83784 | -1.87430 | 26873 ft | 435 kts | 133° |
| 2026-05-04 17:54 | 42.81855 | -1.84236 | 27252 ft | 438 kts | 133° |
| 2026-05-04 17:55 | 42.79917 | -1.81032 | 27617 ft | 440 kts | 133° |
| 2026-05-04 17:55 | 42.77966 | -1.77806 | 27931 ft | 443 kts | 133° |
| 2026-05-04 17:55 | 42.76021 | -1.74585 | 27998 ft | 435 kts | 133° |
| 2026-05-04 17:55 | 42.74142 | -1.71393 | 28000 ft | 431 kts | 129° |
| 2026-05-04 17:56 | 42.71280 | -1.64203 | 28002 ft | 434 kts | 118° |
| 2026-05-04 17:56 | 42.68690 | -1.56804 | 28000 ft | 433 kts | 119° |
| 2026-05-04 17:57 | 42.66085 | -1.49436 | 28001 ft | 432 kts | 119° |
| 2026-05-04 17:57 | 42.63482 | -1.42074 | 28005 ft | 432 kts | 119° |
| 2026-05-04 17:58 | 42.60875 | -1.34725 | 27998 ft | 432 kts | 119° |
| 2026-05-04 17:58 | 42.59573 | -1.31056 | 27999 ft | 431 kts | 119° |
| 2026-05-04 17:58 | 42.58274 | -1.27390 | 27985 ft | 431 kts | 119° |
| 2026-05-04 17:59 | 42.56973 | -1.23728 | 27982 ft | 431 kts | 120° |
| 2026-05-04 17:59 | 42.55671 | -1.20072 | 27975 ft | 430 kts | 120° |
| 2026-05-04 17:59 | 42.53064 | -1.12770 | 27972 ft | 430 kts | 120° |
| 2026-05-04 18:00 | 42.51779 | -1.09175 | 27967 ft | 430 kts | 120° |
| 2026-05-04 18:00 | 42.50477 | -1.05530 | 27958 ft | 429 kts | 120° |
| 2026-05-04 18:00 | 42.49176 | -1.01894 | 27954 ft | 429 kts | 120° |
| 2026-05-04 18:00 | 42.47870 | -0.98257 | 27952 ft | 429 kts | 120° |
| 2026-05-04 18:01 | 42.46567 | -0.94626 | 27945 ft | 429 kts | 120° |
| 2026-05-04 18:01 | 42.45265 | -0.90997 | 27945 ft | 428 kts | 120° |
| 2026-05-04 18:01 | 42.43962 | -0.87383 | 27939 ft | 428 kts | 120° |
| 2026-05-04 18:02 | 42.41350 | -0.80141 | 27930 ft | 428 kts | 120° |
| 2026-05-04 18:02 | 42.40044 | -0.76525 | 27932 ft | 428 kts | 120° |
| 2026-05-04 18:02 | 42.38737 | -0.72909 | 27938 ft | 428 kts | 120° |
| 2026-05-04 18:02 | 42.37428 | -0.69300 | 27937 ft | 427 kts | 120° |
| 2026-05-04 18:03 | 42.36117 | -0.65702 | 27941 ft | 427 kts | 120° |
| 2026-05-04 18:03 | 42.34810 | -0.62112 | 27939 ft | 426 kts | 120° |
| 2026-05-04 18:03 | 42.33500 | -0.58517 | 27938 ft | 426 kts | 120° |
| 2026-05-04 18:03 | 42.32190 | -0.54919 | 27940 ft | 426 kts | 120° |
| 2026-05-04 18:04 | 42.30882 | -0.51328 | 27935 ft | 425 kts | 121° |
| 2026-05-04 18:04 | 42.29575 | -0.47743 | 27936 ft | 425 kts | 121° |
| 2026-05-04 18:04 | 42.26956 | -0.40582 | 27931 ft | 425 kts | 121° |
| 2026-05-04 18:05 | 42.25646 | -0.37014 | 27927 ft | 424 kts | 121° |
| 2026-05-04 18:05 | 42.24335 | -0.33442 | 27937 ft | 425 kts | 121° |
| 2026-05-04 18:05 | 42.23021 | -0.29868 | 27919 ft | 424 kts | 121° |
| 2026-05-04 18:05 | 42.21710 | -0.26305 | 27923 ft | 424 kts | 121° |
| 2026-05-04 18:06 | 42.19083 | -0.19178 | 27923 ft | 425 kts | 121° |
| 2026-05-04 18:06 | 42.17766 | -0.15611 | 27922 ft | 424 kts | 121° |
| 2026-05-04 18:06 | 42.16449 | -0.12050 | 27928 ft | 424 kts | 121° |
| 2026-05-04 18:07 | 42.15135 | -0.08495 | 27924 ft | 424 kts | 121° |
| 2026-05-04 18:07 | 42.13818 | -0.04932 | 27922 ft | 424 kts | 121° |
| 2026-05-04 18:07 | 42.12499 | -0.01378 | 27922 ft | 424 kts | 121° |
| 2026-05-04 18:07 | 42.11182 | 0.02168 | 27920 ft | 424 kts | 121° |
| 2026-05-04 18:08 | 42.09859 | 0.05725 | 27921 ft | 424 kts | 121° |
| 2026-05-04 18:08 | 42.08535 | 0.09271 | 27915 ft | 424 kts | 121° |
| 2026-05-04 18:08 | 42.07207 | 0.12823 | 27916 ft | 424 kts | 121° |
| 2026-05-04 18:08 | 42.05882 | 0.16368 | 27915 ft | 424 kts | 121° |
| 2026-05-04 18:09 | 42.03229 | 0.23459 | 27917 ft | 424 kts | 121° |
| 2026-05-04 18:09 | 42.00569 | 0.30554 | 27924 ft | 425 kts | 121° |
| 2026-05-04 18:10 | 41.99259 | 0.34044 | 27923 ft | 425 kts | 121° |
| 2026-05-04 18:10 | 41.97960 | 0.37611 | 27926 ft | 426 kts | 117° |
| 2026-05-04 18:10 | 41.96935 | 0.41408 | 27955 ft | 438 kts | 113° |
| 2026-05-04 18:10 | 41.95951 | 0.45260 | 27741 ft | 433 kts | 113° |
| 2026-05-04 18:11 | 41.94978 | 0.49069 | 27189 ft | 428 kts | 113° |
| 2026-05-04 18:11 | 41.94015 | 0.52834 | 26652 ft | 424 kts | 113° |
| 2026-05-04 18:11 | 41.93059 | 0.56560 | 26112 ft | 420 kts | 113° |
| 2026-05-04 18:11 | 41.92111 | 0.60245 | 25625 ft | 416 kts | 114° |
| 2026-05-04 18:12 | 41.91169 | 0.63888 | 25153 ft | 411 kts | 114° |
| 2026-05-04 18:12 | 41.90235 | 0.67490 | 24769 ft | 406 kts | 114° |
| 2026-05-04 18:12 | 41.89311 | 0.71049 | 24399 ft | 403 kts | 114° |
| 2026-05-04 18:12 | 41.88392 | 0.74586 | 24018 ft | 400 kts | 114° |
| 2026-05-04 18:13 | 41.87479 | 0.78100 | 23654 ft | 398 kts | 114° |
| 2026-05-04 18:13 | 41.86569 | 0.81595 | 23237 ft | 395 kts | 114° |
| 2026-05-04 18:13 | 41.84763 | 0.88521 | 22499 ft | 392 kts | 114° |
| 2026-05-04 18:14 | 41.83862 | 0.91970 | 22133 ft | 391 kts | 114° |
| 2026-05-04 18:14 | 41.82969 | 0.95393 | 21769 ft | 389 kts | 113° |
| 2026-05-04 18:14 | 41.82073 | 0.98814 | 21378 ft | 388 kts | 113° |
| 2026-05-04 18:15 | 41.80294 | 1.05590 | 20456 ft | 384 kts | 113° |
| 2026-05-04 18:15 | 41.78525 | 1.12294 | 19570 ft | 379 kts | 113° |
| 2026-05-04 18:15 | 41.77649 | 1.15614 | 19133 ft | 377 kts | 113° |
| 2026-05-04 18:16 | 41.76777 | 1.18911 | 18709 ft | 375 kts | 113° |
| 2026-05-04 18:16 | 41.75910 | 1.22195 | 18282 ft | 373 kts | 113° |
| 2026-05-04 18:16 | 41.75047 | 1.25454 | 17792 ft | 371 kts | 113° |
| 2026-05-04 18:17 | 41.73332 | 1.31928 | 16844 ft | 367 kts | 113° |
| 2026-05-04 18:17 | 41.72491 | 1.35095 | 16380 ft | 365 kts | 113° |
| 2026-05-04 18:17 | 41.70793 | 1.41478 | 15299 ft | 367 kts | 113° |
| 2026-05-04 18:18 | 41.69928 | 1.44707 | 14678 ft | 370 kts | 113° |
| 2026-05-04 18:18 | 41.69058 | 1.47956 | 14076 ft | 372 kts | 113° |
| 2026-05-04 18:18 | 41.68182 | 1.51229 | 13446 ft | 374 kts | 112° |
| 2026-05-04 18:18 | 41.67303 | 1.54510 | 12805 ft | 375 kts | 112° |
| 2026-05-04 18:19 | 41.65592 | 1.60912 | 12232 ft | 357 kts | 112° |
| 2026-05-04 18:19 | 41.64764 | 1.64006 | 11935 ft | 349 kts | 113° |
| 2026-05-04 18:19 | 41.63953 | 1.67031 | 11622 ft | 342 kts | 113° |
| 2026-05-04 18:20 | 41.63155 | 1.69996 | 11323 ft | 337 kts | 113° |
| 2026-05-04 18:20 | 41.62367 | 1.72915 | 11019 ft | 331 kts | 113° |
| 2026-05-04 18:20 | 41.61577 | 1.75825 | 10777 ft | 336 kts | 113° |
| 2026-05-04 18:20 | 41.60777 | 1.78756 | 10532 ft | 336 kts | 113° |
| 2026-05-04 18:21 | 41.59979 | 1.81688 | 10296 ft | 334 kts | 113° |
| 2026-05-04 18:21 | 41.59203 | 1.84554 | 10156 ft | 321 kts | 113° |
| 2026-05-04 18:21 | 41.58457 | 1.87315 | 10028 ft | 311 kts | 114° |
| 2026-05-04 18:21 | 41.57728 | 1.90002 | 9831 ft | 305 kts | 114° |
| 2026-05-04 18:22 | 41.57007 | 1.92645 | 9700 ft | 303 kts | 114° |
| 2026-05-04 18:22 | 41.56286 | 1.95281 | 9586 ft | 302 kts | 114° |
| 2026-05-04 18:22 | 41.55567 | 1.97914 | 9510 ft | 302 kts | 114° |
| 2026-05-04 18:22 | 41.54850 | 2.00545 | 9372 ft | 300 kts | 114° |
| 2026-05-04 18:23 | 41.54135 | 2.03161 | 9224 ft | 299 kts | 114° |
| 2026-05-04 18:23 | 41.53430 | 2.05738 | 9073 ft | 300 kts | 114° |
| 2026-05-04 18:23 | 41.52715 | 2.08346 | 8905 ft | 299 kts | 114° |
| 2026-05-04 18:23 | 41.52152 | 2.11027 | 8773 ft | 302 kts | 102° |
| 2026-05-04 18:24 | 41.52067 | 2.13834 | 8603 ft | 304 kts | 90° |
| 2026-05-04 18:24 | 41.52151 | 2.16643 | 8441 ft | 303 kts | 90° |
| 2026-05-04 18:24 | 41.52229 | 2.19443 | 8277 ft | 298 kts | 90° |
| 2026-05-04 18:24 | 41.52263 | 2.22147 | 8147 ft | 285 kts | 98° |
| 2026-05-04 18:25 | 41.51755 | 2.24598 | 8023 ft | 267 kts | 122° |
| 2026-05-04 18:25 | 41.50679 | 2.26531 | 7736 ft | 256 kts | 143° |
| 2026-05-04 18:25 | 41.49233 | 2.27773 | 7440 ft | 239 kts | 161° |
| 2026-05-04 18:25 | 41.47735 | 2.28655 | 7136 ft | 232 kts | 160° |
| 2026-05-04 18:26 | 41.46423 | 2.29914 | 6847 ft | 239 kts | 131° |
| 2026-05-04 18:26 | 41.45781 | 2.31968 | 6559 ft | 247 kts | 97° |
| 2026-05-04 18:26 | 41.46080 | 2.34200 | 6276 ft | 249 kts | 66° |
| 2026-05-04 18:26 | 41.46817 | 2.36289 | 5962 ft | 249 kts | 65° |
| 2026-05-04 18:27 | 41.47544 | 2.38388 | 5659 ft | 249 kts | 66° |
| 2026-05-04 18:27 | 41.48259 | 2.40477 | 5357 ft | 247 kts | 66° |
| 2026-05-04 18:27 | 41.48968 | 2.42558 | 5061 ft | 246 kts | 66° |
| 2026-05-04 18:27 | 41.49621 | 2.44654 | 4760 ft | 243 kts | 79° |
| 2026-05-04 18:28 | 41.49592 | 2.46808 | 4451 ft | 228 kts | 113° |
| 2026-05-04 18:28 | 41.48848 | 2.48583 | 4210 ft | 214 kts | 130° |
| 2026-05-04 18:28 | 41.47975 | 2.50136 | 3979 ft | 206 kts | 132° |
| 2026-05-04 18:28 | 41.47114 | 2.51613 | 3802 ft | 198 kts | 132° |
| 2026-05-04 18:29 | 41.46214 | 2.52951 | 3586 ft | 189 kts | 151° |
| 2026-05-04 18:29 | 41.45012 | 2.53363 | 3513 ft | 177 kts | 192° |
| 2026-05-04 18:29 | 41.43971 | 2.52601 | 3526 ft | 175 kts | 231° |
| 2026-05-04 18:29 | 41.43499 | 2.51112 | 3540 ft | 177 kts | 254° |
| 2026-05-04 18:30 | 41.43024 | 2.47887 | 3520 ft | 177 kts | 256° |
| 2026-05-04 18:30 | 41.42681 | 2.46315 | 3523 ft | 176 kts | 249° |
| 2026-05-04 18:30 | 41.42234 | 2.44797 | 3517 ft | 176 kts | 246° |
| 2026-05-04 18:31 | 41.41757 | 2.43322 | 3520 ft | 176 kts | 245° |
| 2026-05-04 18:31 | 41.41260 | 2.41831 | 3521 ft | 176 kts | 245° |
| 2026-05-04 18:31 | 41.40761 | 2.40348 | 3521 ft | 175 kts | 245° |
| 2026-05-04 18:31 | 41.40261 | 2.38869 | 3522 ft | 176 kts | 245° |
| 2026-05-04 18:32 | 41.39760 | 2.37386 | 3530 ft | 175 kts | 245° |
| 2026-05-04 18:32 | 41.39260 | 2.35909 | 3517 ft | 175 kts | 245° |
| 2026-05-04 18:32 | 41.38760 | 2.34434 | 3518 ft | 175 kts | 245° |
| 2026-05-04 18:32 | 41.38260 | 2.32958 | 3511 ft | 176 kts | 245° |
| 2026-05-04 18:33 | 41.37756 | 2.31473 | 3391 ft | 175 kts | 244° |
| 2026-05-04 18:33 | 41.37256 | 2.29999 | 3176 ft | 174 kts | 245° |
| 2026-05-04 18:33 | 41.36758 | 2.28532 | 2956 ft | 173 kts | 245° |
| 2026-05-04 18:33 | 41.36268 | 2.27091 | 2723 ft | 167 kts | 245° |
| 2026-05-04 18:34 | 41.35803 | 2.25721 | 2528 ft | 158 kts | 245° |
| 2026-05-04 18:34 | 41.35353 | 2.24398 | 2317 ft | 156 kts | 245° |
| 2026-05-04 18:34 | 41.34907 | 2.23088 | 2097 ft | 155 kts | 245° |
| 2026-05-04 18:34 | 41.34462 | 2.21779 | 1889 ft | 155 kts | 245° |
| 2026-05-04 18:35 | 41.34016 | 2.20470 | 1688 ft | 155 kts | 245° |
| 2026-05-04 18:35 | 41.33721 | 2.19605 | 1533 ft | 156 kts | 246° |
| 2026-05-04 18:35 | 41.33127 | 2.17861 | 1264 ft | 158 kts | 246° |
| 2026-05-04 18:35 | 41.32689 | 2.16576 | 1036 ft | 146 kts | 245° |
| 2026-05-04 18:36 | 41.32281 | 2.15380 | 833 ft | 140 kts | 245° |
| 2026-05-04 18:36 | 41.31878 | 2.14200 | 663 ft | 141 kts | 245° |
| 2026-05-04 18:36 | 41.31473 | 2.13009 | 452 ft | 144 kts | 245° |
| 2026-05-04 18:36 | 41.31062 | 2.11799 | 289 ft | 141 kts | 245° |
| 2026-05-04 18:37 | 41.30656 | 2.10642 | 136 ft | 136 kts | 244° |
| 2026-05-04 18:37 | 41.30400 | 2.09881 | 37 ft | 134 kts | 245° |
| 2026-05-04 18:37 | 41.30059 | 2.08877 | 19 ft | 98 kts | 245° |
| 2026-05-04 18:37 | 41.29849 | 2.08264 | 24 ft | 42 kts | 245° |
| 2026-05-04 18:38 | 41.29774 | 2.08053 | 20 ft | 21 kts | 237° |
| 2026-05-04 18:38 | 41.29692 | 2.07927 | 16 ft | 14 kts | 225° |
| 2026-05-04 18:38 | 41.29623 | 2.07855 | 16 ft | 6 kts | 216° |
| 2026-05-04 18:38 | 41.29597 | 2.07830 | 16 ft | 1 kts | 215° |
| 2026-05-04 18:39 | 41.29594 | 2.07827 | 16 ft | 1 kts | 215° |
| 2026-05-04 18:39 | 41.29569 | 2.07803 | 16 ft | 7 kts | 216° |
| 2026-05-04 18:39 | 41.29525 | 2.07763 | 16 ft | 9 kts | 215° |
| 2026-05-04 18:39 | 41.29473 | 2.07706 | 16 ft | 10 kts | 228° |
| 2026-05-04 18:40 | 41.29401 | 2.07703 | 15 ft | 13 kts | 156° |
| 2026-05-04 18:40 | 41.29309 | 2.07758 | 18 ft | 16 kts | 156° |
| 2026-05-04 18:40 | 41.29220 | 2.07812 | 19 ft | 9 kts | 159° |
| 2026-05-04 18:40 | 41.29146 | 2.07827 | 19 ft | 10 kts | 157° |
| 2026-05-04 18:41 | 41.29115 | 2.07846 | 19 ft | 0 kts | 156° |